Time;durP1;ratioP1;P1;durP2;ratioP2;P2;SDS_P1;SDS_P2;PMS_P1;PMS_P2;Temp;Humidity;BMP_temperature;BMP_pressure;BME280_temperature;BME280_humidity;BME280_pressure;Samples;Min_cycle;Max_cycle;Signal;HPM_P1;HPM_P2
2021/03/09 00:00:25;;;;;;;1.87;1.77;;;;;;;-0.78;50.41;101952.75;6119975;29;20189;-73
2021/03/09 00:03:47;;;;;;;5.67;1.60;;;;;;;-0.84;49.70;101960.38;6119014;29;20264;-72
2021/03/09 00:06:50;;;;;;;5.83;1.53;;;;;;;-0.62;49.45;101965.84;6119595;29;20189;-72
2021/03/09 00:09:53;;;;;;;11.23;1.83;;;;;;;-0.54;49.38;101958.06;6119513;29;20194;-72
2021/03/09 00:12:56;;;;;;;9.67;1.70;;;;;;;-0.59;50.23;101949.50;6119781;29;20271;-73
2021/03/09 00:16:00;;;;;;;8.50;1.73;;;;;;;-0.56;50.45;101946.56;6118492;29;20453;-72
2021/03/09 00:19:04;;;;;;;7.83;1.60;;;;;;;-0.74;51.19;101946.19;6118460;29;20387;-74
2021/03/09 00:22:13;;;;;;;7.57;1.80;;;;;;;-0.77;50.94;101946.41;6119728;29;20260;-73
2021/03/09 00:25:16;;;;;;;11.73;1.53;;;;;;;-0.66;51.53;101958.97;6118327;29;20189;-73
2021/03/09 00:28:20;;;;;;;3.33;1.70;;;;;;;-0.62;49.48;101952.44;6118372;29;20189;-73
2021/03/09 00:31:24;;;;;;;6.20;1.83;;;;;;;-0.69;50.21;101953.84;6119085;29;20199;-73
2021/03/09 00:34:27;;;;;;;1.43;1.43;;;;;;;-0.68;50.41;101939.50;6118351;29;20193;-73
2021/03/09 00:37:31;;;;;;;2.67;1.40;;;;;;;-0.94;50.78;101935.25;6118072;29;20212;-73
2021/03/09 00:40:34;;;;;;;3.53;1.63;;;;;;;-0.99;52.38;101934.75;6119150;29;20188;-73
2021/03/09 00:43:38;;;;;;;3.20;2.00;;;;;;;-1.06;51.98;101926.34;6118739;29;20219;-73
2021/03/09 00:46:41;;;;;;;3.00;1.40;;;;;;;-0.93;51.07;101918.22;6117891;29;20498;-74
2021/03/09 00:49:45;;;;;;;1.60;1.50;;;;;;;-1.02;50.16;101918.91;6118769;29;20191;-73
2021/03/09 00:52:48;;;;;;;2.40;1.30;;;;;;;-1.23;50.88;101907.16;6119006;29;20196;-73
2021/03/09 00:55:51;;;;;;;1.40;1.40;;;;;;;-0.98;50.60;101909.69;6118976;29;20198;-73
2021/03/09 00:58:55;;;;;;;2.00;1.40;;;;;;;-1.08;50.63;101908.69;6117907;29;20259;-73
2021/03/09 01:02:00;;;;;;;1.87;1.23;;;;;;;-1.03;50.72;101906.50;6101920;29;20276;-74
2021/03/09 01:05:04;;;;;;;2.70;1.47;;;;;;;-0.89;51.68;101898.25;6118718;29;20271;-73
2021/03/09 01:08:14;;;;;;;2.23;1.80;;;;;;;-1.01;51.18;101899.22;6117395;29;20531;-73
2021/03/09 01:11:17;;;;;;;8.93;1.37;;;;;;;-0.83;51.18;101892.44;6118388;29;20194;-73
2021/03/09 01:14:21;;;;;;;2.43;1.40;;;;;;;-0.99;50.72;101889.22;6118375;29;20192;-73
2021/03/09 01:17:25;;;;;;;1.87;1.27;;;;;;;-0.93;49.82;101870.00;6118334;29;20192;-73
2021/03/09 01:20:28;;;;;;;1.77;1.40;;;;;;;-1.01;50.06;101878.63;6118493;29;20189;-73
2021/03/09 01:23:31;;;;;;;2.77;1.40;;;;;;;-1.17;50.11;101866.53;6118394;29;20223;-73
2021/03/09 01:26:35;;;;;;;2.23;1.50;;;;;;;-1.36;50.76;101865.22;6118553;29;20271;-73
2021/03/09 01:29:38;;;;;;;4.63;1.70;;;;;;;-1.19;51.11;101858.63;6117096;29;20419;-73
2021/03/09 01:32:43;;;;;;;1.60;1.50;;;;;;;-1.17;51.98;101855.81;6118376;29;20207;-74
2021/03/09 01:35:47;;;;;;;1.67;1.47;;;;;;;-1.05;51.23;101854.91;6116963;29;20192;-73
2021/03/09 01:38:50;;;;;;;1.20;1.20;;;;;;;-1.10;49.82;101846.31;6116870;29;20390;-73
2021/03/09 01:41:53;;;;;;;1.30;1.30;;;;;;;-1.03;49.18;101843.09;6118087;29;20223;-73
2021/03/09 01:44:56;;;;;;;1.53;1.53;;;;;;;-0.98;49.12;101845.41;6116831;29;20216;-73
2021/03/09 01:48:03;;;;;;;1.80;1.20;;;;;;;-1.02;49.43;101838.56;6118138;29;20191;-73
2021/03/09 01:51:09;;;;;;;4.93;1.30;;;;;;;-1.10;49.26;101835.59;6116865;29;20414;-73
2021/03/09 01:54:12;;;;;;;1.80;1.60;;;;;;;-1.04;48.58;101827.13;6118135;29;20246;-73
2021/03/09 01:57:16;;;;;;;1.87;1.20;;;;;;;-1.07;48.35;101824.66;6122706;29;20192;-73
2021/03/09 02:00:21;;;;;;;1.20;1.20;;;;;;;-1.11;48.99;101821.41;6121751;29;20358;-73
2021/03/09 02:03:32;;;;;;;2.17;1.40;;;;;;;-1.13;48.90;101819.81;6122246;29;20278;-73
2021/03/09 02:06:35;;;;;;;1.20;1.20;;;;;;;-1.19;49.32;101809.56;6122801;29;20192;-73
2021/03/09 02:09:39;;;;;;;2.27;1.33;;;;;;;-1.43;50.21;101797.06;6122638;29;20193;-73
2021/03/09 02:13:11;;;;;;;1.33;1.13;;;;;;;-1.40;49.88;101796.84;6122726;29;20271;-74
2021/03/09 02:16:22;;;;;;;3.23;1.53;;;;;;;-1.45;51.04;101788.31;6121214;29;20517;-73
2021/03/09 02:20:12;;;;;;;4.57;1.13;;;;;;;-1.40;49.99;101786.13;6121536;29;20192;-73
2021/03/09 02:24:07;;;;;;;1.10;1.10;;;;;;;-1.36;50.49;101776.03;6121766;29;20219;-74
2021/03/09 02:27:33;;;;;;;1.17;1.17;;;;;;;-1.42;50.45;101780.06;6122366;29;20223;-74
2021/03/09 02:30:39;;;;;;;1.07;1.07;;;;;;;-1.54;49.73;101772.94;6121980;29;20197;-74
2021/03/09 02:33:46;;;;;;;1.93;1.10;;;;;;;-1.48;50.56;101766.28;6121837;29;20195;-73
2021/03/09 02:36:50;;;;;;;1.30;1.30;;;;;;;-1.24;50.20;101763.53;6121206;29;20192;-73
2021/03/09 02:39:53;;;;;;;2.00;1.20;;;;;;;-1.34;50.42;101760.72;6121677;29;20236;-73
2021/03/09 02:43:02;;;;;;;5.47;1.17;;;;;;;-1.24;51.49;101758.19;6121905;29;20258;-73
2021/03/09 02:46:08;;;;;;;1.17;1.17;;;;;;;-1.50;50.89;101747.66;6120648;29;20485;-73
2021/03/09 02:49:14;;;;;;;1.30;1.20;;;;;;;-1.31;50.35;101747.94;6120539;29;20190;-74
2021/03/09 02:52:20;;;;;;;1.17;1.10;;;;;;;-1.27;50.02;101751.25;6120471;29;20440;-74
2021/03/09 02:55:24;;;;;;;1.10;1.10;;;;;;;-1.17;50.15;101743.34;6120419;29;20480;-73
2021/03/09 02:58:29;;;;;;;1.10;1.10;;;;;;;-1.16;50.28;101729.84;6120654;29;20440;-73
2021/03/09 03:01:34;;;;;;;2.87;1.30;;;;;;;-1.21;49.78;101728.50;6120148;29;20534;-73
2021/03/09 03:04:41;;;;;;;1.50;1.40;;;;;;;-1.17;50.69;101732.63;6119864;29;20265;-73
2021/03/09 03:07:45;;;;;;;4.47;1.10;;;;;;;-1.20;50.13;101727.50;6121050;29;20197;-73
2021/03/09 03:10:51;;;;;;;8.33;1.60;;;;;;;-1.36;50.76;101719.81;6120031;29;20413;-73
2021/03/09 03:13:56;;;;;;;5.70;1.50;;;;;;;-1.48;52.10;101721.63;6121229;29;20196;-73
2021/03/09 03:17:02;;;;;;;7.77;1.23;;;;;;;-1.36;51.43;101714.47;6120972;29;20255;-74
2021/03/09 03:20:24;;;;;;;1.20;1.10;;;;;;;-1.30;51.23;101716.66;6120781;29;20232;-73
2021/03/09 03:23:28;;;;;;;1.30;1.30;;;;;;;-1.28;51.81;101707.53;6121044;29;20247;-73
2021/03/09 03:26:33;;;;;;;4.27;1.30;;;;;;;-1.19;51.86;101713.16;6120104;29;20214;-73
2021/03/09 03:29:37;;;;;;;1.23;1.20;;;;;;;-1.21;51.60;101709.75;6120962;29;20249;-74
2021/03/09 03:32:41;;;;;;;2.40;1.00;;;;;;;-1.21;51.64;101693.69;6120944;29;20195;-74
2021/03/09 03:35:45;;;;;;;2.30;1.30;;;;;;;-1.15;51.26;101687.81;6119487;29;20396;-74
2021/03/09 03:38:49;;;;;;;3.40;1.40;;;;;;;-1.19;51.61;101681.03;6120720;29;20191;-73
2021/03/09 03:41:55;;;;;;;1.50;1.47;;;;;;;-1.17;51.97;101673.72;6119206;29;20525;-74
2021/03/09 03:44:59;;;;;;;1.10;1.10;;;;;;;-1.25;51.30;101682.34;6119179;29;20452;-73
2021/03/09 03:48:04;;;;;;;14.17;1.63;;;;;;;-1.33;52.09;101685.63;6119479;29;20265;-73
2021/03/09 03:51:12;;;;;;;2.00;1.40;;;;;;;-1.23;52.28;101680.41;6120210;29;20199;-74
2021/03/09 03:54:30;;;;;;;5.87;1.60;;;;;;;-1.34;52.73;101670.56;6119232;29;20199;-73
2021/03/09 03:57:41;;;;;;;3.43;1.50;;;;;;;-1.24;51.71;101667.16;6118972;29;20465;-73
2021/03/09 04:00:46;;;;;;;1.20;1.20;;;;;;;-1.29;52.55;101664.84;6118779;29;20491;-73
2021/03/09 04:03:53;;;;;;;3.10;1.20;;;;;;;-1.23;53.08;101658.16;6119528;29;20255;-74
2021/03/09 04:06:56;;;;;;;1.27;1.27;;;;;;;-1.29;53.29;101655.00;6120154;29;20193;-73
2021/03/09 04:10:00;;;;;;;4.47;1.27;;;;;;;-1.29;53.61;101655.00;6118716;29;20200;-74
2021/03/09 04:13:06;;;;;;;1.57;1.23;;;;;;;-1.56;53.61;101661.63;6119664;29;20193;-73
2021/03/09 04:16:13;;;;;;;3.80;1.20;;;;;;;-1.45;53.81;101659.84;6118577;29;20192;-74
2021/03/09 04:19:18;;;;;;;1.63;1.53;;;;;;;-1.35;53.81;101654.59;6119531;29;20224;-73
2021/03/09 04:22:24;;;;;;;4.90;1.20;;;;;;;-1.31;53.39;101643.53;6118494;29;20303;-74
2021/03/09 04:25:29;;;;;;;1.90;1.13;;;;;;;-1.26;53.29;101648.53;6118716;29;20195;-73
2021/03/09 04:28:32;;;;;;;1.30;1.20;;;;;;;-1.24;52.30;101640.38;6118246;29;20377;-73
2021/03/09 04:31:37;;;;;;;8.13;1.50;;;;;;;-1.28;52.51;101629.91;6118180;29;20208;-73
2021/03/09 04:34:42;;;;;;;4.47;1.33;;;;;;;-1.16;51.93;101637.94;6119500;29;20222;-73
2021/03/09 04:37:46;;;;;;;1.30;1.20;;;;;;;-1.38;52.75;101634.28;6119360;29;20192;-73
2021/03/09 04:40:50;;;;;;;2.20;1.43;;;;;;;-1.40;53.42;101641.59;6119391;29;20198;-73
2021/03/09 04:43:53;;;;;;;2.73;1.27;;;;;;;-1.41;53.02;101634.50;6119118;29;20219;-73
2021/03/09 04:46:58;;;;;;;2.60;1.40;;;;;;;-1.48;53.33;101630.63;6117946;29;20359;-73
2021/03/09 04:50:03;;;;;;;6.50;1.47;;;;;;;-1.30;52.91;101642.56;6118741;29;20240;-73
2021/03/09 04:53:07;;;;;;;7.10;1.43;;;;;;;-1.58;53.34;101626.97;6117778;29;20196;-72
2021/03/09 04:56:10;;;;;;;1.60;1.37;;;;;;;-1.36;52.73;101626.97;6118576;29;20239;-73
2021/03/09 04:59:13;;;;;;;1.73;1.27;;;;;;;-1.44;52.59;101624.03;6118457;29;20189;-73
2021/03/09 05:02:16;;;;;;;5.17;1.57;;;;;;;-1.48;53.76;101617.25;6117684;29;20281;-73
2021/03/09 05:05:23;;;;;;;8.33;1.40;;;;;;;-1.54;54.20;101628.41;6118267;29;20370;-73
2021/03/09 05:08:27;;;;;;;2.83;1.77;;;;;;;-1.37;53.21;101619.94;6118612;29;20229;-73
2021/03/09 05:11:31;;;;;;;11.43;1.30;;;;;;;-1.67;54.55;101611.63;6118396;29;20231;-73
2021/03/09 05:14:34;;;;;;;3.43;1.33;;;;;;;-1.42;53.21;101616.78;6117061;29;20503;-73
2021/03/09 05:17:38;;;;;;;7.97;1.60;;;;;;;-1.18;52.33;101607.75;6118039;29;20192;-73
2021/03/09 05:20:43;;;;;;;6.77;1.50;;;;;;;-1.23;53.28;101609.97;6118131;29;20272;-73
2021/03/09 05:23:46;;;;;;;2.80;1.40;;;;;;;-1.20;53.19;101609.69;6118116;29;20242;-74
2021/03/09 05:26:50;;;;;;;9.63;1.63;;;;;;;-1.32;54.23;101600.81;6118392;29;20267;-73
2021/03/09 05:29:53;;;;;;;15.30;1.57;;;;;;;-1.22;54.10;101596.44;6118136;29;20263;-73
2021/03/09 05:32:57;;;;;;;3.50;1.30;;;;;;;-1.33;54.10;101583.91;6117086;29;20456;-72
2021/03/09 05:36:02;;;;;;;6.53;1.37;;;;;;;-1.26;54.86;101585.09;6118000;29;20192;-72
2021/03/09 05:39:06;;;;;;;4.60;1.50;;;;;;;-1.19;54.30;101584.63;6118201;29;20245;-73
2021/03/09 05:42:09;;;;;;;4.00;1.40;;;;;;;-1.19;54.29;101576.59;6117856;29;20207;-73
2021/03/09 05:45:13;;;;;;;4.53;1.50;;;;;;;-1.41;55.27;101577.44;6118230;29;20204;-73
2021/03/09 05:48:18;;;;;;;11.90;1.80;;;;;;;-1.31;55.25;101570.41;6118177;29;20195;-73
2021/03/09 05:51:22;;;;;;;6.07;1.30;;;;;;;-1.20;55.02;101572.19;6117996;29;20192;-73
2021/03/09 05:54:25;;;;;;;4.07;1.43;;;;;;;-1.15;55.58;101580.72;6117860;29;20199;-73
2021/03/09 05:57:30;;;;;;;7.70;1.33;;;;;;;-1.01;54.92;101588.50;6116913;29;20192;-73
2021/03/09 06:00:34;;;;;;;6.63;1.40;;;;;;;-1.15;56.34;101583.38;6118034;29;20232;-73
2021/03/09 06:03:44;;;;;;;3.97;1.90;;;;;;;-1.04;56.22;101583.38;6117200;29;20279;-74
2021/03/09 06:06:48;;;;;;;6.70;1.70;;;;;;;-0.92;55.76;101582.38;6117076;29;20191;-74
2021/03/09 06:09:51;;;;;;;9.03;1.43;;;;;;;-1.00;56.85;101582.19;6117599;29;20198;-73
2021/03/09 06:12:54;;;;;;;6.07;1.20;;;;;;;-0.86;56.28;101581.88;6116661;29;20359;-73
2021/03/09 06:15:57;;;;;;;4.63;1.63;;;;;;;-0.88;56.81;101583.84;6117552;29;20191;-73
2021/03/09 06:19:01;;;;;;;4.50;1.50;;;;;;;-0.84;56.57;101575.41;6116426;29;20239;-73
2021/03/09 06:22:06;;;;;;;10.67;1.80;;;;;;;-0.85;57.15;101578.25;6117767;29;20195;-73
2021/03/09 06:25:12;;;;;;;5.43;1.70;;;;;;;-0.73;56.86;101571.88;6116546;29;20548;-74
2021/03/09 06:28:28;;;;;;;2.67;1.50;;;;;;;-0.74;57.79;101575.50;6116398;29;20364;-74
2021/03/09 06:31:31;;;;;;;5.03;1.53;;;;;;;-0.61;56.94;101576.19;6117408;29;20197;-74
2021/03/09 06:34:36;;;;;;;3.17;1.17;;;;;;;-0.49;56.91;101580.56;6116331;29;20197;-73
2021/03/09 06:37:40;;;;;;;6.87;1.50;;;;;;;-0.65;58.17;101574.75;6116235;29;20390;-73
2021/03/09 06:40:45;;;;;;;6.73;1.33;;;;;;;-0.81;58.55;101568.97;6117998;29;20192;-73
2021/03/09 06:44:01;;;;;;;10.10;2.37;;;;;;;-0.48;58.06;101571.53;6121513;29;20220;-74
2021/03/09 06:47:06;;;;;;;28.77;5.40;;;;;;;-0.41;58.42;101567.34;6120576;29;20489;-74
2021/03/09 06:50:13;;;;;;;43.37;9.63;;;;;;;-0.43;58.82;101569.31;6120614;29;20530;-72
2021/03/09 06:53:27;;;;;;;12.63;6.43;;;;;;;-0.33;59.29;101564.00;6121327;29;20260;-73
2021/03/09 06:56:32;;;;;;;7.40;3.00;;;;;;;-0.15;58.50;101568.66;6121594;29;20309;-73
2021/03/09 06:59:35;;;;;;;5.87;2.20;;;;;;;-0.12;58.21;101565.72;6121156;29;20192;-74
2021/03/09 07:02:38;;;;;;;7.73;2.30;;;;;;;-0.02;58.24;101555.91;6120943;29;20311;-74
2021/03/09 07:05:55;;;;;;;8.97;2.00;;;;;;;0.03;58.63;101555.50;6120993;29;20191;-74
2021/03/09 07:09:09;;;;;;;5.27;2.00;;;;;;;-0.15;58.95;101552.56;6121131;29;20192;-74
2021/03/09 07:12:13;;;;;;;13.23;1.90;;;;;;;-0.06;59.16;101540.22;6120982;29;20199;-73
2021/03/09 07:15:19;;;;;;;5.60;1.80;;;;;;;0.14;59.28;101546.53;6120298;29;20194;-73
2021/03/09 07:18:23;;;;;;;4.60;1.87;;;;;;;0.16;59.05;101541.88;6120901;29;20261;-73
2021/03/09 07:21:32;;;;;;;6.97;1.77;;;;;;;0.38;59.13;101545.28;6120609;29;20193;-74
2021/03/09 07:24:40;;;;;;;8.37;1.70;;;;;;;0.29;59.69;101548.75;6120923;29;20213;-72
2021/03/09 07:27:51;;;;;;;2.07;1.70;;;;;;;0.30;60.25;101537.03;6120849;29;20191;-72
2021/03/09 07:30:55;;;;;;;8.63;2.23;;;;;;;0.38;60.39;101549.78;6120603;29;20189;-73
2021/03/09 07:33:59;;;;;;;4.93;1.37;;;;;;;0.11;61.46;101547.66;6120910;29;20266;-74
2021/03/09 07:37:03;;;;;;;13.93;1.80;;;;;;;0.25;61.66;101533.91;6120885;29;20221;-73
2021/03/09 07:40:10;;;;;;;5.23;2.10;;;;;;;0.37;61.79;101548.94;6121099;29;20274;-73
2021/03/09 07:43:13;;;;;;;5.37;2.20;;;;;;;0.46;61.72;101547.28;6119207;29;20416;-73
2021/03/09 07:46:18;;;;;;;10.53;1.50;;;;;;;0.43;62.09;101553.78;6120805;29;20230;-73
2021/03/09 07:49:21;;;;;;;10.03;2.10;;;;;;;0.56;61.58;101559.78;6119069;29;20382;-73
2021/03/09 07:52:25;;;;;;;3.87;1.40;;;;;;;0.50;61.91;101551.38;6120573;29;20195;-73
2021/03/09 07:55:29;;;;;;;7.73;1.57;;;;;;;0.57;61.79;101555.22;6134694;29;20211;-73
2021/03/09 07:58:32;;;;;;;9.00;1.60;;;;;;;0.37;62.79;101553.44;6119901;29;20239;-73
2021/03/09 08:01:45;;;;;;;5.90;1.40;;;;;;;0.15;62.92;101553.63;6120297;29;20222;-73
2021/03/09 08:04:56;;;;;;;8.90;1.67;;;;;;;0.33;63.09;101549.34;6118752;29;20250;-74
2021/03/09 08:08:01;;;;;;;6.53;1.50;;;;;;;0.43;62.73;101543.03;6118786;29;20191;-73
2021/03/09 08:11:05;;;;;;;12.77;1.37;;;;;;;0.36;63.06;101546.41;6118626;29;20385;-74
2021/03/09 08:14:26;;;;;;;8.67;1.63;;;;;;;0.41;63.30;101538.78;6119908;29;20236;-73
2021/03/09 08:17:29;;;;;;;11.07;1.70;;;;;;;0.51;62.62;101542.34;6119868;29;20237;-73
2021/03/09 08:20:47;;;;;;;6.37;1.77;;;;;;;0.15;64.58;101548.25;6119931;29;20223;-72
2021/03/09 08:23:56;;;;;;;6.83;1.33;;;;;;;0.39;63.49;101535.38;6118419;29;20269;-73
2021/03/09 08:27:00;;;;;;;7.93;1.30;;;;;;;0.59;63.24;101542.53;6119721;29;20268;-73
2021/03/09 08:30:28;;;;;;;4.20;1.30;;;;;;;0.70;63.38;101544.25;6119403;29;20191;-73
2021/03/09 08:33:34;;;;;;;2.23;1.17;;;;;;;0.26;64.17;101534.72;6118298;29;20210;-73
2021/03/09 08:36:39;;;;;;;3.60;1.23;;;;;;;0.17;65.27;101546.28;6119513;29;20199;-73
2021/03/09 08:40:04;;;;;;;3.10;1.57;;;;;;;0.62;64.75;101531.50;6119212;29;20221;-73
2021/03/09 08:43:14;;;;;;;1.73;1.50;;;;;;;0.82;64.19;101535.13;6119474;29;20215;-73
2021/03/09 08:46:20;;;;;;;8.80;1.50;;;;;;;0.92;63.96;101538.66;6119657;29;20190;-74
2021/03/09 08:49:45;;;;;;;1.63;1.50;;;;;;;0.98;64.01;101538.94;6119661;29;20199;-74
2021/03/09 08:52:49;;;;;;;14.97;1.60;;;;;;;1.05;64.60;101532.03;6118468;29;20424;-73
2021/03/09 08:55:53;;;;;;;3.40;1.50;;;;;;;0.93;64.96;101540.34;6119650;29;20250;-74
2021/03/09 08:58:58;;;;;;;3.03;1.53;;;;;;;0.75;66.03;101547.38;6118662;29;20192;-74
2021/03/09 09:02:10;;;;;;;2.10;1.20;;;;;;;0.87;66.12;101552.53;6117446;29;20245;-74
2021/03/09 09:05:15;;;;;;;1.57;1.30;;;;;;;0.96;66.26;101540.94;6118743;29;20245;-73
2021/03/09 09:08:20;;;;;;;5.10;1.53;;;;;;;0.89;67.04;101539.78;6117741;29;20230;-74
2021/03/09 09:11:26;;;;;;;4.27;1.53;;;;;;;1.19;66.11;101546.91;6118861;29;20231;-74
2021/03/09 09:14:31;;;;;;;12.60;2.07;;;;;;;1.08;66.76;101539.81;6118093;29;20217;-74
2021/03/09 09:17:35;;;;;;;2.27;1.60;;;;;;;1.14;66.90;101547.34;6119185;29;20196;-74
2021/03/09 09:20:43;;;;;;;1.40;1.30;;;;;;;0.52;69.70;101546.72;6117476;29;20386;-74
2021/03/09 09:23:46;;;;;;;3.27;1.93;;;;;;;0.95;68.71;101555.34;6117228;29;20219;-74
2021/03/09 09:27:00;;;;;;;7.90;1.93;;;;;;;0.85;69.44;101554.47;6118144;29;20254;-74
2021/03/09 09:30:06;;;;;;;1.40;1.30;;;;;;;0.99;69.79;101542.50;6117130;29;20475;-73
2021/03/09 09:33:17;;;;;;;1.43;1.30;;;;;;;0.72;70.55;101532.38;6117109;29;20194;-73
2021/03/09 09:36:22;;;;;;;1.43;1.43;;;;;;;0.90;70.35;101546.84;6117319;29;20234;-74
2021/03/09 09:39:33;;;;;;;1.30;1.27;;;;;;;0.95;70.45;101549.97;6118554;29;20190;-73
2021/03/09 09:42:36;;;;;;;8.43;1.77;;;;;;;0.92;70.98;101539.53;6118588;29;20197;-73
2021/03/09 09:45:42;;;;;;;1.40;1.40;;;;;;;0.90;71.43;101546.84;6116842;29;20218;-73
2021/03/09 09:48:47;;;;;;;5.50;1.37;;;;;;;0.94;71.68;101537.53;6117965;29;20192;-74
2021/03/09 09:51:50;;;;;;;1.47;1.37;;;;;;;0.88;72.12;101532.72;6116881;29;20421;-73
2021/03/09 09:54:56;;;;;;;3.20;1.50;;;;;;;1.08;71.53;101538.97;6117871;29;20234;-74
2021/03/09 09:58:00;;;;;;;1.40;1.30;;;;;;;1.13;71.51;101551.00;6117692;29;20267;-73
2021/03/09 10:01:04;;;;;;;6.40;1.33;;;;;;;1.24;71.10;101550.88;6117957;29;20198;-73
2021/03/09 10:04:09;;;;;;;3.77;1.40;;;;;;;0.96;72.63;101551.69;6117704;29;20243;-73
2021/03/09 10:07:15;;;;;;;2.27;1.50;;;;;;;1.09;72.95;101552.28;6117369;29;20367;-73
2021/03/09 10:10:18;;;;;;;2.93;1.63;;;;;;;1.31;71.93;101547.66;6117989;29;20198;-74
2021/03/09 10:13:24;;;;;;;1.57;1.47;;;;;;;1.25;72.34;101563.34;6117512;29;20196;-74
2021/03/09 10:16:38;;;;;;;1.40;1.40;;;;;;;1.31;72.24;101566.47;6119521;29;20420;-74
2021/03/09 10:19:42;;;;;;;3.73;1.40;;;;;;;1.12;73.14;101573.50;6122137;29;20230;-74
2021/03/09 10:22:46;;;;;;;1.80;1.40;;;;;;;0.92;74.50;101571.78;6121247;29;20529;-74
2021/03/09 10:25:55;;;;;;;4.50;1.80;;;;;;;1.12;74.05;101578.88;6121189;29;20422;-74
2021/03/09 10:29:04;;;;;;;4.33;1.50;;;;;;;1.16;74.77;101585.66;6121005;29;20388;-74
2021/03/09 10:32:15;;;;;;;3.30;1.23;;;;;;;1.30;74.71;101575.50;6120969;29;20476;-74
2021/03/09 10:35:19;;;;;;;1.97;1.70;;;;;;;1.42;74.93;101586.00;6120802;29;20427;-74
2021/03/09 10:38:24;;;;;;;10.20;1.93;;;;;;;1.52;75.10;101594.06;6120696;29;20445;-74
2021/03/09 10:41:28;;;;;;;2.67;1.60;;;;;;;1.35;75.77;101589.38;6120733;29;20240;-74
2021/03/09 10:44:35;;;;;;;2.13;1.80;;;;;;;1.06;77.87;101584.81;6121844;29;20256;-74
2021/03/09 10:47:40;;;;;;;1.50;1.50;;;;;;;1.39;77.14;101590.81;6120523;29;20389;-74
2021/03/09 10:50:43;;;;;;;1.60;1.60;;;;;;;1.43;77.54;101597.59;6120402;29;20542;-73
2021/03/09 10:53:47;;;;;;;2.17;1.53;;;;;;;1.18;78.97;101609.75;6121690;29;20196;-73
2021/03/09 10:56:50;;;;;;;2.60;1.53;;;;;;;0.95;80.00;101610.94;6122016;29;20192;-74
2021/03/09 10:59:53;;;;;;;4.10;1.50;;;;;;;0.58;81.90;101605.28;6121146;29;20203;-73
2021/03/09 11:02:58;;;;;;;1.40;1.40;;;;;;;0.73;82.02;101609.28;6121559;29;20239;-74
2021/03/09 11:06:01;;;;;;;4.17;3.97;;;;;;;0.60;83.40;101624.78;6120142;29;20376;-73
2021/03/09 11:09:06;;;;;;;2.20;2.10;;;;;;;0.78;82.91;101612.44;6121641;29;20192;-73
2021/03/09 11:12:09;;;;;;;1.80;1.70;;;;;;;0.67;83.07;101614.38;6121391;29;20192;-73
2021/03/09 11:15:16;;;;;;;1.83;1.50;;;;;;;0.74;83.36;101618.22;6120800;29;20196;-73
2021/03/09 11:18:21;;;;;;;1.87;1.53;;;;;;;0.83;83.21;101620.94;6120339;29;20499;-74
2021/03/09 11:21:25;;;;;;;3.73;2.20;;;;;;;1.04;83.84;101615.50;6119979;29;20481;-75
2021/03/09 11:24:28;;;;;;;1.40;1.40;;;;;;;1.37;81.83;101614.28;6120825;29;20215;-72
2021/03/09 11:27:33;;;;;;;3.70;3.40;;;;;;;1.16;82.19;101612.56;6119311;29;20555;-74
2021/03/09 11:30:37;;;;;;;3.37;1.30;;;;;;;0.97;82.97;101622.41;6119256;29;20210;-74
2021/03/09 11:33:41;;;;;;;2.53;1.50;;;;;;;1.07;83.73;101621.44;6120437;29;20199;-74
2021/03/09 11:36:45;;;;;;;1.17;1.17;;;;;;;0.84;82.73;101617.28;6120091;29;20255;-73
2021/03/09 11:39:48;;;;;;;3.17;1.87;;;;;;;0.93;82.84;101626.31;6119433;29;20504;-74
2021/03/09 11:42:52;;;;;;;2.93;1.80;;;;;;;0.93;82.80;101621.81;6120750;29;20232;-74
2021/03/09 11:45:55;;;;;;;4.77;1.80;;;;;;;0.86;83.52;101615.28;6120617;29;20299;-74
2021/03/09 11:48:59;;;;;;;1.77;1.73;;;;;;;0.98;83.71;101618.72;6119040;29;20192;-74
2021/03/09 11:52:03;;;;;;;4.43;1.60;;;;;;;1.12;83.10;101632.63;6119909;29;20192;-73
2021/03/09 11:55:07;;;;;;;1.80;1.70;;;;;;;1.10;83.39;101623.88;6119079;29;20220;-73
2021/03/09 11:58:12;;;;;;;4.40;1.37;;;;;;;0.98;82.69;101624.09;6120441;29;20223;-73
2021/03/09 12:01:17;;;;;;;1.77;1.60;;;;;;;0.84;83.02;101630.69;6120226;29;20239;-73
2021/03/09 12:04:22;;;;;;;1.70;1.70;;;;;;;0.89;82.94;101625.78;6118647;29;20251;-76
2021/03/09 12:07:25;;;;;;;2.20;1.80;;;;;;;0.89;83.04;101625.78;6119816;29;20196;-72
2021/03/09 12:10:28;;;;;;;2.37;1.67;;;;;;;0.65;83.79;101627.91;6118556;29;20504;-72
2021/03/09 12:13:32;;;;;;;3.30;1.77;;;;;;;1.01;83.27;101624.66;6118578;29;20486;-72
2021/03/09 12:16:35;;;;;;;1.93;1.67;;;;;;;1.08;83.22;101617.75;6119701;29;20262;-72
2021/03/09 12:19:39;;;;;;;2.23;1.83;;;;;;;1.01;82.49;101630.03;6118419;29;20263;-72
2021/03/09 12:22:42;;;;;;;3.33;1.63;;;;;;;1.19;81.34;101628.41;6118315;29;20482;-73
2021/03/09 12:25:46;;;;;;;1.70;1.17;;;;;;;1.18;81.00;101631.25;6119056;29;20268;-72
2021/03/09 12:28:49;;;;;;;1.60;1.30;;;;;;;1.16;81.27;101623.31;6118265;29;20506;-73
2021/03/09 12:31:52;;;;;;;1.50;1.40;;;;;;;1.23;81.95;101623.63;6118104;29;20510;-73
2021/03/09 12:34:56;;;;;;;1.40;1.30;;;;;;;1.30;80.41;101619.38;6118183;29;20267;-74
2021/03/09 12:38:00;;;;;;;1.80;1.33;;;;;;;1.41;80.03;101621.09;6117671;29;20218;-74
2021/03/09 12:41:03;;;;;;;2.27;1.73;;;;;;;1.45;79.91;101612.59;6118926;29;20199;-74
2021/03/09 12:44:07;;;;;;;1.73;1.63;;;;;;;1.34;80.51;101614.56;6117805;29;20340;-74
2021/03/09 12:47:13;;;;;;;1.50;1.40;;;;;;;1.47;79.14;101625.91;6119249;29;20204;-74
2021/03/09 12:50:18;;;;;;;6.40;1.60;;;;;;;1.48;78.83;101616.84;6119157;29;20191;-74
2021/03/09 12:53:22;;;;;;;2.30;1.40;;;;;;;1.53;77.80;101614.59;6117729;29;20462;-73
2021/03/09 12:56:25;;;;;;;1.30;1.30;;;;;;;1.52;75.91;101629.03;6119032;29;20229;-73
2021/03/09 12:59:28;;;;;;;1.83;1.60;;;;;;;1.72;76.54;101620.00;6118766;29;20198;-74
2021/03/09 13:02:32;;;;;;;2.30;1.57;;;;;;;1.91;75.68;101630.75;6117398;29;20473;-74
2021/03/09 13:05:37;;;;;;;1.53;1.53;;;;;;;1.78;75.50;101630.19;6118682;29;20217;-73
2021/03/09 13:08:42;;;;;;;2.00;1.50;;;;;;;1.95;75.71;101632.19;6118721;29;20196;-73
2021/03/09 13:11:45;;;;;;;1.57;1.47;;;;;;;1.91;76.37;101630.75;6117759;29;20377;-73
2021/03/09 13:14:49;;;;;;;5.47;1.50;;;;;;;2.02;75.80;101633.31;6118739;29;20200;-73
2021/03/09 13:17:53;;;;;;;7.00;1.50;;;;;;;1.99;75.44;101617.44;6117174;29;20216;-73
2021/03/09 13:20:57;;;;;;;1.87;1.30;;;;;;;1.98;75.78;101621.13;6118259;29;20259;-73
2021/03/09 13:24:01;;;;;;;5.27;1.40;;;;;;;1.94;75.83;101632.31;6118403;29;20219;-73
2021/03/09 13:27:12;;;;;;;2.30;1.40;;;;;;;1.92;75.27;101637.84;6117243;29;20189;-74
2021/03/09 13:30:18;;;;;;;2.90;1.50;;;;;;;2.15;74.88;101639.25;6118604;29;20197;-73
2021/03/09 13:33:22;;;;;;;2.43;2.07;;;;;;;2.25;75.10;101634.72;6118191;29;20192;-74
2021/03/09 13:36:27;;;;;;;4.57;1.40;;;;;;;2.29;74.56;101651.41;6118413;29;20217;-73
2021/03/09 13:39:30;;;;;;;2.00;1.47;;;;;;;2.47;74.90;101631.69;6118316;29;20192;-73
2021/03/09 13:42:34;;;;;;;1.47;1.40;;;;;;;2.31;75.11;101644.88;6118307;29;20189;-73
2021/03/09 13:45:37;;;;;;;2.23;1.80;;;;;;;1.96;76.32;101636.56;6116859;29;20221;-73
2021/03/09 13:48:41;;;;;;;4.20;1.70;;;;;;;2.48;74.47;101640.59;6117793;29;20306;-73
2021/03/09 13:51:46;;;;;;;2.10;1.60;;;;;;;2.34;73.94;101639.22;6125790;29;20192;-73
2021/03/09 13:54:49;;;;;;;3.13;1.70;;;;;;;2.22;75.05;101635.00;6124554;29;20418;-73
2021/03/09 13:57:53;;;;;;;1.80;1.70;;;;;;;2.42;74.95;101644.72;6125959;29;20195;-73
2021/03/09 14:00:57;;;;;;;2.43;1.77;;;;;;;2.47;74.98;101650.53;6125787;29;20196;-73
2021/03/09 14:04:05;;;;;;;1.30;1.30;;;;;;;2.43;75.24;101653.66;6124882;29;20574;-74
2021/03/09 14:07:12;;;;;;;1.47;1.40;;;;;;;2.01;76.04;101671.97;6125861;29;20221;-73
2021/03/09 14:10:16;;;;;;;3.07;1.73;;;;;;;1.80;79.76;101660.50;6125424;29;20192;-75
2021/03/09 14:13:21;;;;;;;3.90;1.60;;;;;;;1.69;81.03;101657.94;6125663;29;20192;-73
2021/03/09 14:16:25;;;;;;;4.70;1.40;;;;;;;1.64;81.73;101666.44;6125757;29;20270;-73
2021/03/09 14:19:29;;;;;;;1.50;1.40;;;;;;;1.63;82.99;101671.94;6125551;29;20192;-73
2021/03/09 14:22:33;;;;;;;1.87;1.40;;;;;;;1.43;82.30;101667.53;6124755;29;20213;-74
2021/03/09 14:25:37;;;;;;;4.27;1.40;;;;;;;1.50;82.46;101674.91;6124229;29;20226;-74
2021/03/09 14:28:40;;;;;;;2.40;1.70;;;;;;;1.70;81.74;101683.84;6125643;29;20189;-73